Time;durP1;ratioP1;P1;durP2;ratioP2;P2;SDS_P1;SDS_P2;PMS_P1;PMS_P2;Temp;Humidity;BMP_temperature;BMP_pressure;BME280_temperature;BME280_humidity;BME280_pressure;Samples;Min_cycle;Max_cycle;Signal;HPM_P1;HPM_P2
2023/02/21 02:14:59;;;;;;;12.93;4.97;;;10.10;92.50;;;;;;5027949;28;20060;-68
2023/02/21 02:17:46;;;;;;;12.73;5.38;;;10.00;92.50;;;;;;5029260;28;20033;-68
2023/02/21 02:20:21;;;;;;;11.48;4.50;;;10.00;92.50;;;;;;5024726;28;20554;-68
2023/02/21 02:23:01;;;;;;;14.50;5.65;;;10.00;92.50;;;;;;5028680;28;20557;-67
2023/02/21 02:25:38;;;;;;;16.15;6.78;;;10.00;92.50;;;;;;5030514;28;20037;-67
2023/02/21 02:28:40;;;;;;;15.68;5.57;;;10.00;92.50;;;;;;5026865;28;20064;-68
2023/02/21 02:31:21;;;;;;;18.83;6.07;;;10.10;92.50;;;;;;5029896;28;20587;-68
2023/02/21 02:34:17;;;;;;;11.73;4.85;;;10.00;92.40;;;;;;5026561;28;20021;-68
2023/02/21 02:36:56;;;;;;;17.35;6.00;;;10.00;92.50;;;;;;5029375;28;20033;-68
2023/02/21 02:39:40;;;;;;;9.40;4.00;;;10.10;92.50;;;;;;5028811;28;20047;-67
2023/02/21 02:42:18;;;;;;;11.73;4.47;;;10.10;92.50;;;;;;5024456;28;20033;-67
2023/02/21 02:45:14;;;;;;;13.88;5.15;;;10.10;92.40;;;;;;5025842;28;20017;-69
2023/02/21 02:47:43;;;;;;;13.57;4.82;;;10.10;92.40;;;;;;5025923;28;20030;-66
2023/02/21 02:50:11;;;;;;;11.48;4.60;;;10.00;92.40;;;;;;5026588;28;20032;-68
2023/02/21 02:52:38;;;;;;;8.82;3.42;;;10.10;92.50;;;;;;5027492;28;20025;-67
2023/02/21 02:55:33;;;;;;;11.75;4.15;;;10.10;92.50;;;;;;5028341;28;20165;-68
2023/02/21 02:57:59;;;;;;;10.55;4.57;;;10.10;92.50;;;;;;5029262;28;20021;-67
2023/02/21 03:00:26;;;;;;;9.70;3.95;;;10.20;92.50;;;;;;5028288;28;20488;-68
2023/02/21 03:03:10;;;;;;;11.63;4.75;;;10.10;92.40;;;;;;5028460;28;20052;-68
2023/02/21 03:06:05;;;;;;;13.25;5.07;;;10.10;92.40;;;;;;5028667;28;20040;-67
2023/02/21 03:08:55;;;;;;;14.80;5.43;;;10.10;92.50;;;;;;5030304;28;20041;-67
2023/02/21 03:11:24;;;;;;;10.77;4.25;;;10.10;92.50;;;;;;5027812;28;20030;-67
2023/02/21 03:13:59;;;;;;;14.65;5.13;;;10.00;92.50;;;;;;5027404;28;20022;-68
2023/02/21 03:16:59;;;;;;;10.43;3.78;;;10.00;92.50;;;;;;5026772;28;20182;-68
2023/02/21 03:19:29;;;;;;;11.30;4.15;;;10.00;92.60;;;;;;5026441;28;20041;-68
2023/02/21 03:21:57;;;;;;;17.25;4.80;;;10.10;92.60;;;;;;5026512;28;21218;-67
2023/02/21 03:24:24;;;;;;;12.60;5.40;;;10.10;92.60;;;;;;5026868;28;20452;-68
2023/02/21 03:26:55;;;;;;;17.58;5.53;;;10.10;92.50;;;;;;5029201;28;20407;-67
2023/02/21 03:29:21;;;;;;;15.63;4.85;;;10.10;92.50;;;;;;5026762;28;20041;-67
2023/02/21 03:34:36;;;;;;;13.43;4.78;;;10.10;92.50;;;;;;5024688;28;20709;-68
2023/02/21 03:37:03;;;;;;;11.85;5.45;;;10.10;92.50;;;;;;5024780;28;20049;-68
2023/02/21 03:39:28;;;;;;;13.00;5.38;;;10.10;92.50;;;;;;5027033;28;20021;-67
2023/02/21 03:41:54;;;;;;;14.93;5.13;;;10.00;92.50;;;;;;5026888;28;20029;-68
2023/02/21 03:44:19;;;;;;;12.00;4.63;;;10.00;92.60;;;;;;5028874;28;20029;-67
2023/02/21 03:46:45;;;;;;;13.23;4.78;;;10.00;92.60;;;;;;5028718;28;20084;-67
2023/02/21 03:49:10;;;;;;;10.65;4.22;;;10.00;92.70;;;;;;5028728;28;20033;-68
2023/02/21 03:51:36;;;;;;;13.55;4.80;;;10.00;92.60;;;;;;5025905;28;20030;-68
2023/02/21 03:54:01;;;;;;;6.93;2.67;;;10.00;92.60;;;;;;5028040;28;20021;-68
2023/02/21 03:56:27;;;;;;;7.03;2.90;;;10.00;92.70;;;;;;5027102;28;20037;-68
2023/02/21 03:58:52;;;;;;;9.70;3.63;;;10.00;92.70;;;;;;5027649;28;20025;-68
2023/02/21 04:01:18;;;;;;;7.15;3.33;;;10.00;92.60;;;;;;5026291;28;20427;-67
2023/02/21 04:03:44;;;;;;;13.15;5.03;;;10.00;92.60;;;;;;5028524;28;20059;-68
2023/02/21 04:06:09;;;;;;;13.18;4.63;;;10.00;92.70;;;;;;5019988;28;20590;-68
2023/02/21 04:08:35;;;;;;;9.82;3.58;;;10.00;92.60;;;;;;5025966;28;20022;-69
2023/02/21 04:11:00;;;;;;;9.35;3.78;;;10.00;92.60;;;;;;5026439;28;20033;-67
2023/02/21 04:13:26;;;;;;;10.52;3.92;;;9.90;92.60;;;;;;5027911;28;20036;-67
2023/02/21 04:15:51;;;;;;;12.07;3.95;;;9.90;92.70;;;;;;5024315;28;20677;-68
2023/02/21 04:18:17;;;;;;;8.40;3.78;;;9.90;92.70;;;;;;5026661;28;20086;-68
2023/02/21 04:20:44;;;;;;;9.65;3.33;;;9.90;93.00;;;;;;5025234;28;20064;-68
2023/02/21 04:23:10;;;;;;;11.52;3.85;;;9.90;92.80;;;;;;5024998;28;20032;-68
2023/02/21 04:25:35;;;;;;;12.30;5.07;;;9.90;92.80;;;;;;5026922;28;20112;-67
2023/02/21 04:28:01;;;;;;;11.25;4.20;;;9.90;92.80;;;;;;5028382;28;20067;-68
2023/02/21 04:30:27;;;;;;;9.52;3.40;;;9.80;92.80;;;;;;5027084;28;20024;-67
2023/02/21 04:32:52;;;;;;;9.50;3.35;;;9.90;92.80;;;;;;5022683;28;20036;-72
2023/02/21 04:35:18;;;;;;;9.48;3.53;;;9.90;92.80;;;;;;5024559;28;20667;-68
2023/02/21 04:37:46;;;;;;;13.70;5.05;;;9.90;92.70;;;;;;5024628;28;20017;-68
2023/02/21 04:40:12;;;;;;;10.10;3.97;;;9.90;92.70;;;;;;5027222;28;20080;-68
2023/02/21 04:42:38;;;;;;;10.15;3.67;;;9.90;92.70;;;;;;5024527;28;20029;-68
2023/02/21 04:45:03;;;;;;;13.20;4.70;;;9.90;92.70;;;;;;5025436;28;20377;-68
2023/02/21 04:47:29;;;;;;;11.05;4.05;;;9.90;92.70;;;;;;5027872;28;20025;-67
2023/02/21 04:49:55;;;;;;;6.97;2.85;;;9.90;92.80;;;;;;5026806;28;20028;-68
2023/02/21 04:52:20;;;;;;;12.77;4.47;;;9.90;92.80;;;;;;5027273;28;20080;-68
2023/02/21 04:54:47;;;;;;;12.00;3.72;;;9.90;92.80;;;;;;5026254;28;20018;-67
2023/02/21 04:57:13;;;;;;;10.57;4.00;;;9.90;92.80;;;;;;5028363;28;20029;-68
2023/02/21 04:59:39;;;;;;;7.97;3.25;;;9.90;92.80;;;;;;5024617;28;20071;-69
2023/02/21 05:02:05;;;;;;;10.05;4.30;;;9.90;92.90;;;;;;5024651;28;20029;-67
2023/02/21 05:04:30;;;;;;;9.23;3.38;;;9.80;92.80;;;;;;5026127;28;20113;-67
2023/02/21 05:06:58;;;;;;;12.93;5.15;;;9.80;92.80;;;;;;5029819;28;20096;-67
2023/02/21 05:09:24;;;;;;;11.63;3.53;;;9.80;92.90;;;;;;5030134;28;20033;-69
2023/02/21 05:11:49;;;;;;;11.05;3.47;;;9.80;92.80;;;;;;5030052;28;20484;-67
2023/02/21 05:14:17;;;;;;;8.00;2.92;;;9.80;92.80;;;;;;5028262;28;20488;-67
2023/02/21 05:16:43;;;;;;;10.35;3.03;;;9.90;92.90;;;;;;5026713;28;20083;-68
2023/02/21 05:19:09;;;;;;;8.43;2.70;;;9.90;92.80;;;;;;5030785;28;20049;-68
2023/02/21 05:21:39;;;;;;;10.77;4.03;;;9.90;92.80;;;;;;5030960;28;20022;-69
2023/02/21 05:24:06;;;;;;;8.25;3.22;;;9.90;92.80;;;;;;5028115;28;20055;-67
2023/02/21 05:26:37;;;;;;;8.55;3.53;;;9.90;92.80;;;;;;5031581;28;20515;-68
2023/02/21 05:29:03;;;;;;;10.13;3.60;;;9.80;92.80;;;;;;5029011;28;20132;-68
2023/02/21 05:31:30;;;;;;;10.23;3.63;;;9.90;92.80;;;;;;5029969;28;20109;-68
2023/02/21 05:33:56;;;;;;;8.45;3.30;;;9.90;92.80;;;;;;5029137;28;20061;-68
2023/02/21 05:36:24;;;;;;;8.30;3.35;;;9.90;92.80;;;;;;5027609;28;20076;-67
2023/02/21 05:38:52;;;;;;;15.73;5.20;;;9.90;92.80;;;;;;5023250;28;20160;-67
2023/02/21 05:41:18;;;;;;;9.60;3.90;;;9.90;92.80;;;;;;5031257;28;20030;-67
2023/02/21 05:43:45;;;;;;;11.70;4.38;;;9.90;92.80;;;;;;5030514;28;20082;-67
2023/02/21 05:46:28;;;;;;;15.85;4.80;;;9.90;92.80;;;;;;5028583;28;20032;-67
2023/02/21 05:48:55;;;;;;;12.00;4.10;;;9.90;92.80;;;;;;5029239;28;20108;-67
2023/02/21 05:51:21;;;;;;;8.60;3.08;;;9.90;92.80;;;;;;5027764;28;20029;-67
2023/02/21 05:53:48;;;;;;;12.43;3.80;;;9.90;92.70;;;;;;5030856;28;20029;-66
2023/02/21 05:56:14;;;;;;;9.93;2.78;;;9.90;92.80;;;;;;5028774;28;20136;-67
2023/02/21 05:58:40;;;;;;;10.20;3.83;;;9.90;92.70;;;;;;5025727;28;20030;-68
2023/02/21 06:01:05;;;;;;;10.50;4.32;;;9.90;92.60;;;;;;5027815;28;20032;-67
2023/02/21 06:03:31;;;;;;;9.98;3.53;;;9.90;92.70;;;;;;5027894;28;20021;-68
2023/02/21 06:05:57;;;;;;;15.20;4.07;;;9.90;92.80;;;;;;5027534;28;20025;-67
2023/02/21 06:08:23;;;;;;;10.10;3.30;;;9.90;92.80;;;;;;5027295;28;20083;-68
2023/02/21 06:10:48;;;;;;;10.05;3.47;;;9.90;92.70;;;;;;5030680;28;20017;-68
2023/02/21 06:13:14;;;;;;;9.88;3.67;;;10.00;92.70;;;;;;5029949;28;20510;-68
2023/02/21 06:15:39;;;;;;;12.82;3.78;;;10.00;92.70;;;;;;5029070;28;20546;-68
2023/02/21 06:18:05;;;;;;;8.30;2.42;;;10.00;92.70;;;;;;5027239;28;20025;-69
2023/02/21 06:20:30;;;;;;;8.85;3.97;;;10.00;93.00;;;;;;5029370;28;20029;-68
2023/02/21 06:22:56;;;;;;;6.72;2.85;;;10.00;92.70;;;;;;5026220;28;20368;-66
2023/02/21 06:25:23;;;;;;;8.85;3.13;;;10.00;92.70;;;;;;5030004;28;20516;-67
2023/02/21 06:27:48;;;;;;;10.70;4.13;;;10.00;92.70;;;;;;5027308;28;20060;-67
2023/02/21 06:30:14;;;;;;;12.75;4.13;;;9.90;92.70;;;;;;5028059;28;20179;-68
2023/02/21 06:32:41;;;;;;;11.10;3.92;;;9.90;92.70;;;;;;5030097;28;20021;-68
2023/02/21 06:35:07;;;;;;;7.75;3.63;;;9.90;92.80;;;;;;5030112;28;20060;-67
2023/02/21 06:37:32;;;;;;;10.10;3.75;;;9.90;92.80;;;;;;5022412;28;20126;-69
2023/02/21 06:39:58;;;;;;;9.52;3.20;;;9.90;92.80;;;;;;5026847;28;20073;-67
2023/02/21 06:42:23;;;;;;;9.70;3.65;;;9.90;92.80;;;;;;5028424;28;20075;-68
2023/02/21 06:44:49;;;;;;;9.80;3.35;;;10.00;92.80;;;;;;5029103;28;20026;-68
2023/02/21 06:47:16;;;;;;;8.88;3.35;;;10.00;92.70;;;;;;5028161;28;20374;-67
2023/02/21 06:49:42;;;;;;;4.25;2.25;;;10.00;92.70;;;;;;5028367;28;20024;-68
2023/02/21 06:52:08;;;;;;;10.90;3.03;;;10.00;93.00;;;;;;5028081;28;20171;-67
2023/02/21 06:54:34;;;;;;;10.45;3.53;;;10.00;92.70;;;;;;5026342;28;20017;-68
2023/02/21 06:57:00;;;;;;;10.57;4.10;;;10.00;92.70;;;;;;5027461;28;20049;-67
2023/02/21 06:59:27;;;;;;;15.10;5.10;;;9.90;92.70;;;;;;5023073;28;20017;-69
2023/02/21 07:01:54;;;;;;;10.20;3.55;;;9.90;92.70;;;;;;5026913;28;20459;-68
2023/02/21 07:04:20;;;;;;;7.55;3.20;;;9.90;92.70;;;;;;5023740;28;20036;-68
2023/02/21 07:06:45;;;;;;;5.30;2.28;;;9.90;92.70;;;;;;5018399;28;20025;-68
2023/02/21 07:09:12;;;;;;;11.10;3.28;;;9.90;92.80;;;;;;5029303;28;20760;-68
2023/02/21 07:11:37;;;;;;;13.18;4.00;;;9.90;92.80;;;;;;5023379;28;20024;-69
2023/02/21 07:14:03;;;;;;;8.57;3.47;;;9.90;92.80;;;;;;5025840;28;20033;-67
2023/02/21 07:16:29;;;;;;;8.50;3.38;;;9.90;92.80;;;;;;5028865;28;20036;-67
2023/02/21 07:18:54;;;;;;;9.23;3.20;;;9.90;92.80;;;;;;5028534;28;20446;-67
2023/02/21 07:21:20;;;;;;;11.00;4.15;;;9.90;92.80;;;;;;5027824;28;20021;-67
2023/02/21 07:23:47;;;;;;;12.32;3.72;;;9.90;92.90;;;;;;5028002;28;20025;-67
2023/02/21 07:26:14;;;;;;;11.30;3.22;;;9.80;92.90;;;;;;5029151;28;20133;-67
2023/02/21 07:28:40;;;;;;;10.65;3.97;;;9.90;92.90;;;;;;5025814;28;20029;-68
2023/02/21 07:31:07;;;;;;;8.98;3.55;;;9.90;92.90;;;;;;5022524;28;20688;-66
2023/02/21 07:33:33;;;;;;;12.68;4.80;;;9.90;92.80;;;;;;5026904;28;20047;-66
2023/02/21 07:35:59;;;;;;;12.98;4.22;;;9.90;92.80;;;;;;5028190;28;20021;-67
2023/02/21 07:38:27;;;;;;;9.23;3.65;;;9.90;92.80;;;;;;5027195;28;20029;-67
2023/02/21 07:40:54;;;;;;;10.98;4.43;;;9.90;92.80;;;;;;5028273;28;20036;-67
2023/02/21 07:43:20;;;;;;;13.48;4.50;;;9.90;92.80;;;;;;5025926;28;20538;-67
2023/02/21 07:45:46;;;;;;;11.55;4.32;;;9.90;92.80;;;;;;5023465;28;20030;-67
2023/02/21 07:48:13;;;;;;;13.30;4.53;;;9.90;92.80;;;;;;5023541;28;20393;-68
2023/02/21 07:50:43;;;;;;;14.57;4.28;;;9.80;92.80;;;;;;5024832;28;20018;-67
2023/02/21 07:53:09;;;;;;;7.82;3.17;;;9.90;92.90;;;;;;5021048;28;20022;-67
2023/02/21 07:55:35;;;;;;;14.40;4.57;;;9.90;92.90;;;;;;5028008;28;20037;-67
2023/02/21 07:58:01;;;;;;;13.60;4.53;;;9.80;92.90;;;;;;5028339;28;20419;-66
2023/02/21 08:00:26;;;;;;;10.68;3.22;;;9.90;92.90;;;;;;5025465;28;20041;-66
2023/02/21 08:02:52;;;;;;;16.17;5.10;;;9.90;92.90;;;;;;5025069;28;20157;-67
2023/02/21 08:05:19;;;;;;;8.55;3.28;;;9.90;92.90;;;;;;5024883;28;20088;-68
2023/02/21 08:07:45;;;;;;;9.80;3.50;;;9.90;92.80;;;;;;5020828;28;20388;-67
2023/02/21 08:10:12;;;;;;;11.73;3.95;;;10.00;92.80;;;;;;5026291;28;20025;-68
2023/02/21 08:12:38;;;;;;;10.43;3.67;;;10.00;92.80;;;;;;5027532;28;20075;-68
2023/02/21 08:15:04;;;;;;;14.07;4.88;;;10.00;92.70;;;;;;5020445;28;20029;-68
2023/02/21 08:17:30;;;;;;;15.75;5.30;;;10.00;92.70;;;;;;5018357;28;21940;-67
2023/02/21 08:19:56;;;;;;;11.88;4.25;;;9.90;92.80;;;;;;5026161;28;20116;-68
2023/02/21 08:22:22;;;;;;;7.03;2.90;;;9.90;92.90;;;;;;5027319;28;20121;-68
2023/02/21 08:24:50;;;;;;;10.77;3.30;;;10.00;92.90;;;;;;5027585;28;20025;-68
2023/02/21 08:27:17;;;;;;;12.35;4.03;;;10.00;92.90;;;;;;5027134;28;20452;-68
2023/02/21 08:29:42;;;;;;;8.18;3.38;;;9.90;92.80;;;;;;5028786;28;20022;-68
2023/02/21 08:32:09;;;;;;;13.32;3.80;;;10.00;92.90;;;;;;5027766;28;20385;-67
2023/02/21 08:34:34;;;;;;;16.13;5.05;;;9.90;92.80;;;;;;5024651;28;20029;-69
2023/02/21 08:37:00;;;;;;;11.52;3.65;;;10.00;92.90;;;;;;5025695;28;20547;-67
2023/02/21 08:39:28;;;;;;;11.73;3.60;;;10.00;93.00;;;;;;5020565;28;20056;-68
2023/02/21 08:41:55;;;;;;;12.88;4.38;;;10.00;92.90;;;;;;5028074;28;20512;-68
2023/02/21 08:44:21;;;;;;;9.18;3.10;;;10.00;92.90;;;;;;5027740;28;20095;-68
2023/02/21 08:46:47;;;;;;;9.07;3.63;;;10.00;92.90;;;;;;5024806;28;20014;-68
2023/02/21 08:49:13;;;;;;;10.73;3.85;;;10.00;92.90;;;;;;5028697;28;20493;-67
2023/02/21 08:51:39;;;;;;;12.10;3.95;;;10.00;93.20;;;;;;5029659;28;20449;-68
2023/02/21 08:54:05;;;;;;;12.27;3.80;;;10.00;93.20;;;;;;5031036;28;20526;-68
2023/02/21 08:56:31;;;;;;;8.50;3.40;;;10.00;92.90;;;;;;5029634;28;20467;-68
2023/02/21 08:58:57;;;;;;;9.02;3.10;;;10.00;92.80;;;;;;5024162;28;20025;-68
2023/02/21 09:01:28;;;;;;;11.23;3.38;;;10.10;92.90;;;;;;5025853;28;20029;-68
2023/02/21 09:03:54;;;;;;;10.93;3.72;;;10.10;92.80;;;;;;5030474;28;20049;-68
2023/02/21 09:06:20;;;;;;;8.32;3.17;;;10.10;92.90;;;;;;5028770;28;20044;-67
2023/02/21 09:08:45;;;;;;;9.00;3.25;;;10.10;92.80;;;;;;5027912;28;20040;-67
2023/02/21 09:11:11;;;;;;;11.15;4.30;;;10.10;92.90;;;;;;5029124;28;20029;-68
2023/02/21 09:13:36;;;;;;;9.73;3.10;;;10.00;92.90;;;;;;5030247;28;20040;-67
2023/02/21 09:16:03;;;;;;;12.40;4.30;;;10.10;92.90;;;;;;5029932;28;20228;-67
2023/02/21 09:18:30;;;;;;;12.52;4.20;;;10.10;92.90;;;;;;5030508;28;20055;-68
2023/02/21 09:20:56;;;;;;;10.02;3.13;;;10.10;92.90;;;;;;5030500;28;20029;-68
2023/02/21 09:23:24;;;;;;;9.82;3.35;;;10.20;92.90;;;;;;5030273;28;20111;-68
2023/02/21 09:25:50;;;;;;;9.95;3.17;;;10.20;92.80;;;;;;5026602;28;20575;-68
2023/02/21 09:28:17;;;;;;;11.05;3.40;;;10.10;92.80;;;;;;5030106;28;20030;-68
2023/02/21 09:30:43;;;;;;;9.27;2.95;;;10.20;92.80;;;;;;5029841;28;20021;-67
2023/02/21 09:33:09;;;;;;;7.78;2.92;;;10.20;92.80;;;;;;5031550;28;20021;-68
2023/02/21 09:35:36;;;;;;;9.80;3.10;;;10.20;92.80;;;;;;5020846;28;20033;-68
2023/02/21 09:38:02;;;;;;;10.93;3.22;;;10.10;92.80;;;;;;5027828;28;20034;-68
2023/02/21 09:40:48;;;;;;;13.07;3.40;;;10.10;92.80;;;;;;5025330;28;20053;-68
2023/02/21 09:43:19;;;;;;;5.75;2.55;;;10.10;92.90;;;;;;5028507;28;20041;-68
2023/02/21 09:45:46;;;;;;;8.48;3.15;;;10.10;92.90;;;;;;5027623;28;20484;-67
2023/02/21 09:48:19;;;;;;;8.65;2.80;;;10.10;92.90;;;;;;5025902;28;20030;-68
2023/02/21 09:50:51;;;;;;;8.27;3.15;;;10.10;92.90;;;;;;5028533;28;20053;-68
2023/02/21 09:53:27;;;;;;;13.02;3.50;;;10.10;93.00;;;;;;5024812;28;20096;-68
2023/02/21 09:55:59;;;;;;;8.15;3.25;;;10.10;93.00;;;;;;5023330;28;20060;-68
2023/02/21 09:58:25;;;;;;;9.88;3.05;;;10.10;93.00;;;;;;5040833;28;20014;-68
2023/02/21 10:00:50;;;;;;;9.80;2.90;;;10.10;93.00;;;;;;5026263;28;20029;-68
2023/02/21 10:03:31;;;;;;;10.45;3.03;;;10.20;93.00;;;;;;5023926;28;20025;-68
2023/02/21 10:06:20;;;;;;;7.25;2.55;;;10.20;92.90;;;;;;5024367;28;20439;-67
2023/02/21 10:09:16;;;;;;;5.95;2.03;;;10.30;92.90;;;;;;5025438;28;20148;-67
2023/02/21 10:12:19;;;;;;;8.95;3.15;;;10.20;92.80;;;;;;5023519;28;20022;-68
2023/02/21 10:15:02;;;;;;;6.75;2.60;;;10.20;92.80;;;;;;5030050;28;20057;-69
2023/02/21 10:17:33;;;;;;;7.65;2.50;;;10.20;92.90;;;;;;5025347;28;20025;-68
2023/02/21 10:20:10;;;;;;;6.93;2.70;;;10.20;92.90;;;;;;5024648;28;20591;-69
2023/02/21 10:22:39;;;;;;;10.93;3.25;;;10.20;92.90;;;;;;5025110;28;20032;-68
2023/02/21 10:25:22;;;;;;;10.30;3.22;;;10.30;92.80;;;;;;5026900;28;20025;-68
2023/02/21 10:27:49;;;;;;;8.88;4.10;;;10.30;92.80;;;;;;5025633;28;20125;-68
2023/02/21 10:30:36;;;;;;;10.00;3.42;;;10.20;92.80;;;;;;5023394;28;20121;-69
2023/02/21 10:33:05;;;;;;;8.75;3.03;;;10.20;92.80;;;;;;5026162;28;20048;-68
2023/02/21 10:35:35;;;;;;;13.20;3.70;;;10.30;92.80;;;;;;5024766;28;20037;-68
2023/02/21 10:38:03;;;;;;;11.63;3.50;;;10.30;92.80;;;;;;5026607;28;20063;-68
2023/02/21 10:40:40;;;;;;;11.30;3.38;;;10.40;92.80;;;;;;5025148;28;20032;-68
2023/02/21 10:43:16;;;;;;;8.63;3.50;;;10.40;92.80;;;;;;5024518;28;20116;-69
2023/02/21 10:46:02;;;;;;;6.45;2.63;;;10.40;92.60;;;;;;5024473;28;20493;-69
2023/02/21 10:48:34;;;;;;;12.45;3.22;;;10.30;92.70;;;;;;5023109;28;20037;-69
2023/02/21 10:51:15;;;;;;;11.70;3.65;;;10.40;92.70;;;;;;5023573;28;20120;-69
2023/02/21 10:53:43;;;;;;;13.60;5.53;;;10.30;92.70;;;;;;5025103;28;20503;-69
2023/02/21 10:56:17;;;;;;;10.52;3.85;;;10.30;92.60;;;;;;5025079;28;20574;-68
2023/02/21 10:58:55;;;;;;;10.70;3.45;;;10.30;92.70;;;;;;5028290;28;20105;-68
2023/02/21 11:01:29;;;;;;;7.32;2.97;;;10.40;92.80;;;;;;5027622;28;20233;-68
2023/02/21 11:04:24;;;;;;;7.60;3.05;;;10.40;92.70;;;;;;5025218;28;20023;-68
2023/02/21 11:06:54;;;;;;;10.02;3.03;;;10.30;92.70;;;;;;5028202;28;20440;-68
2023/02/21 11:09:26;;;;;;;8.98;3.20;;;10.30;92.70;;;;;;5028287;28;20076;-68
2023/02/21 11:12:29;;;;;;;7.75;2.58;;;10.40;92.80;;;;;;5028227;28;20026;-68
2023/02/21 11:14:57;;;;;;;7.72;3.00;;;10.40;92.80;;;;;;5026958;28;20021;-68
2023/02/21 11:17:27;;;;;;;11.60;3.92;;;10.40;92.70;;;;;;5025709;28;20539;-69
2023/02/21 11:19:57;;;;;;;7.53;3.30;;;10.40;92.80;;;;;;5026291;28;20021;-68
2023/02/21 11:22:35;;;;;;;9.90;3.33;;;10.40;92.80;;;;;;5023701;28;20075;-68
2023/02/21 11:25:22;;;;;;;12.38;3.67;;;10.40;92.70;;;;;;5026745;28;20044;-68
2023/02/21 11:28:09;;;;;;;12.23;4.45;;;10.40;92.70;;;;;;5030072;28;20075;-68
2023/02/21 11:30:38;;;;;;;12.38;3.97;;;10.40;92.70;;;;;;5026581;28;20029;-67
2023/02/21 11:33:04;;;;;;;10.10;3.15;;;10.40;92.70;;;;;;5023160;28;20100;-68
2023/02/21 11:35:44;;;;;;;11.45;3.85;;;10.40;92.70;;;;;;5028007;28;20488;-68
2023/02/21 11:38:42;;;;;;;14.27;4.75;;;10.40;92.70;;;;;;5026969;28;20040;-68
2023/02/21 11:41:22;;;;;;;9.48;3.47;;;10.40;92.70;;;;;;5026391;28;20026;-70
2023/02/21 11:43:52;;;;;;;10.65;3.58;;;10.40;92.70;;;;;;5021211;28;20030;-69
2023/02/21 11:46:45;;;;;;;11.98;2.95;;;10.40;92.70;;;;;;5022673;28;20025;-68
2023/02/21 11:49:13;;;;;;;7.75;2.80;;;10.40;92.70;;;;;;5024090;28;20025;-68
2023/02/21 11:51:53;;;;;;;6.82;2.70;;;10.40;92.70;;;;;;5021935;28;20094;-68
2023/02/21 11:54:23;;;;;;;8.98;2.58;;;10.40;92.70;;;;;;5040489;28;20695;-68
2023/02/21 11:57:21;;;;;;;7.00;2.53;;;10.40;92.80;;;;;;5024225;28;20782;-69
2023/02/21 12:00:07;;;;;;;10.63;3.08;;;10.40;92.80;;;;;;5021363;28;20852;-69
2023/02/21 12:02:41;;;;;;;9.18;3.15;;;10.40;92.80;;;;;;5021309;28;20045;-69
2023/02/21 12:05:29;;;;;;;8.00;2.53;;;10.40;92.80;;;;;;5023753;28;20377;-69
2023/02/21 12:08:35;;;;;;;6.63;2.28;;;10.40;92.80;;;;;;5025622;28;20033;-68
2023/02/21 12:11:21;;;;;;;7.72;2.15;;;10.50;92.70;;;;;;5023853;28;20599;-68
2023/02/21 12:14:20;;;;;;;7.03;2.47;;;10.50;92.70;;;;;;5022903;28;20025;-69
2023/02/21 12:16:55;;;;;;;8.60;2.67;;;10.50;92.70;;;;;;5023843;28;20060;-67
2023/02/21 12:19:49;;;;;;;7.55;2.30;;;10.50;92.70;;;;;;5025416;28;20041;-68
2023/02/21 12:22:27;;;;;;;5.45;2.15;;;10.50;92.70;;;;;;5018307;28;20066;-68
2023/02/21 12:25:22;;;;;;;4.88;2.15;;;10.60;92.70;;;;;;5016949;28;21199;-68
2023/02/21 12:28:03;;;;;;;8.48;2.45;;;10.50;92.60;;;;;;5023682;28;20029;-68
2023/02/21 12:30:38;;;;;;;4.72;2.13;;;10.50;92.60;;;;;;5024510;28;20049;-67
2023/02/21 12:33:29;;;;;;;6.90;1.80;;;10.50;92.60;;;;;;5023802;28;20084;-68
2023/02/21 12:36:24;;;;;;;4.40;2.03;;;10.50;92.70;;;;;;5022520;28;20591;-68
2023/02/21 12:39:21;;;;;;;4.78;1.65;;;10.60;92.70;;;;;;5011080;28;20482;-68
2023/02/21 12:42:11;;;;;;;3.65;1.45;;;10.60;92.60;;;;;;5023948;28;20500;-67
2023/02/21 12:44:51;;;;;;;4.32;2.10;;;10.60;92.60;;;;;;5023496;28;20037;-68
2023/02/21 12:47:26;;;;;;;5.88;2.40;;;10.60;92.60;;;;;;5024972;28;20029;-68
2023/02/21 12:50:13;;;;;;;5.40;2.42;;;10.50;92.60;;;;;;5023741;28;20037;-67
2023/02/21 12:53:02;;;;;;;4.22;1.92;;;10.50;92.60;;;;;;5022732;28;20029;-67
2023/02/21 12:55:34;;;;;;;6.85;2.63;;;10.50;92.60;;;;;;5024541;28;20025;-67
2023/02/21 12:58:11;;;;;;;5.32;1.92;;;10.50;92.60;;;;;;5024964;28;20034;-68
2023/02/21 13:01:02;;;;;;;4.63;1.90;;;10.50;92.60;;;;;;5025326;28;20532;-68
2023/02/21 13:03:41;;;;;;;4.68;1.80;;;10.50;92.50;;;;;;5022788;28;20064;-67
2023/02/21 13:06:28;;;;;;;4.00;1.83;;;10.50;92.50;;;;;;5021095;28;20037;-68
2023/02/21 13:09:09;;;;;;;1.92;1.20;;;10.40;92.50;;;;;;5019339;28;20107;-67
2023/02/21 13:11:53;;;;;;;6.55;2.75;;;10.40;92.50;;;;;;5018014;28;20618;-68
2023/02/21 13:14:25;;;;;;;4.47;1.70;;;10.40;92.50;;;;;;5022365;28;20026;-67
2023/02/21 13:16:54;;;;;;;4.93;1.75;;;10.30;92.60;;;;;;5022462;28;20941;-68
2023/02/21 13:19:21;;;;;;;3.67;1.85;;;10.30;92.60;;;;;;5024677;28;20037;-68
2023/02/21 13:21:58;;;;;;;4.13;1.83;;;10.40;92.70;;;;;;5023440;28;20118;-67
2023/02/21 13:24:44;;;;;;;4.90;1.67;;;10.40;92.70;;;;;;5024403;28;20099;-67
2023/02/21 13:27:27;;;;;;;3.50;1.40;;;10.50;92.60;;;;;;5025566;28;20047;-67
2023/02/21 13:30:02;;;;;;;2.92;1.40;;;10.50;92.60;;;;;;5028444;28;20545;-68
2023/02/21 13:32:35;;;;;;;3.97;1.65;;;10.60;92.60;;;;;;5026912;28;20024;-68
2023/02/21 13:35:06;;;;;;;3.95;1.48;;;10.50;92.60;;;;;;5027131;28;20056;-68
2023/02/21 13:37:34;;;;;;;5.50;2.05;;;10.50;92.60;;;;;;5027157;28;20033;-68
2023/02/21 13:40:06;;;;;;;4.00;1.80;;;10.60;92.60;;;;;;5025611;28;20021;-68
2023/02/21 13:42:35;;;;;;;3.38;1.83;;;10.60;92.60;;;;;;5025885;28;20034;-67
2023/02/21 13:45:24;;;;;;;3.78;1.80;;;10.60;92.50;;;;;;5026772;28;20025;-68
2023/02/21 13:48:17;;;;;;;7.35;2.58;;;10.50;92.60;;;;;;5027444;28;20026;-68
2023/02/21 13:50:50;;;;;;;2.75;1.50;;;10.60;92.60;;;;;;5027919;28;20026;-68
2023/02/21 13:53:26;;;;;;;3.45;1.52;;;10.60;92.50;;;;;;5025352;28;20037;-68
2023/02/21 13:56:06;;;;;;;4.05;1.42;;;10.60;92.50;;;;;;5027810;28;20087;-67
2023/02/21 13:58:44;;;;;;;3.47;1.63;;;10.70;92.50;;;;;;5026566;28;20034;-67
2023/02/21 14:01:28;;;;;;;5.60;1.48;;;10.70;92.50;;;;;;5026563;28;20029;-68
2023/02/21 14:03:56;;;;;;;4.18;1.60;;;10.70;92.40;;;;;;5026175;28;20087;-67
2023/02/21 14:06:36;;;;;;;5.03;1.90;;;10.70;92.40;;;;;;5026793;28;20041;-67
2023/02/21 14:09:22;;;;;;;5.65;1.40;;;10.70;92.40;;;;;;5027507;28;20017;-68
2023/02/21 14:11:50;;;;;;;4.50;2.00;;;10.70;92.40;;;;;;5025600;28;20030;-67
2023/02/21 14:14:29;;;;;;;4.22;2.17;;;10.70;92.40;;;;;;5026573;28;20112;-67
2023/02/21 14:17:03;;;;;;;5.38;2.15;;;10.70;92.40;;;;;;5028380;28;20041;-67
2023/02/21 14:19:50;;;;;;;5.28;1.77;;;10.70;92.40;;;;;;5026877;28;20451;-67
2023/02/21 14:22:29;;;;;;;5.07;1.63;;;10.80;92.40;;;;;;5025268;28;20057;-69
2023/02/21 14:25:18;;;;;;;6.68;2.33;;;10.80;92.30;;;;;;5026740;28;20377;-68
2023/02/21 14:27:44;;;;;;;4.72;1.80;;;10.80;92.40;;;;;;5020332;28;20030;-68
2023/02/21 14:30:09;;;;;;;6.03;2.30;;;10.70;92.40;;;;;;5027322;28;20654;-68
2023/02/21 14:32:41;;;;;;;7.40;2.97;;;10.70;92.40;;;;;;5022827;28;20021;-68
2023/02/21 14:35:31;;;;;;;6.18;2.20;;;10.70;92.40;;;;;;5023999;28;20029;-68
2023/02/21 14:38:14;;;;;;;6.65;2.42;;;10.70;92.40;;;;;;5023203;28;20057;-69
2023/02/21 14:40:48;;;;;;;4.57;1.90;;;10.60;92.50;;;;;;5024890;28;20033;-68
2023/02/21 14:43:49;;;;;;;5.38;2.17;;;10.60;92.50;;;;;;5019314;28;20030;-67
2023/02/21 14:46:30;;;;;;;3.40;1.50;;;10.60;92.40;;;;;;5025512;28;20034;-67
2023/02/21 14:49:34;;;;;;;6.55;2.63;;;10.70;92.50;;;;;;5023991;28;20022;-67
2023/02/21 14:52:20;;;;;;;7.00;2.70;;;10.60;92.50;;;;;;5021469;28;20026;-67
2023/02/21 14:54:54;;;;;;;6.40;2.38;;;10.60;92.40;;;;;;5025227;28;20018;-67
2023/02/21 14:57:48;;;;;;;5.55;2.17;;;10.60;92.50;;;;;;5024476;28;20037;-68
2023/02/21 15:00:46;;;;;;;5.82;2.33;;;10.60;92.50;;;;;;5021915;28;20514;-68
2023/02/21 15:03:19;;;;;;;3.60;1.80;;;10.60;92.50;;;;;;5021946;28;20067;-67
2023/02/21 15:05:59;;;;;;;5.82;1.75;;;10.70;92.50;;;;;;5023782;28;20041;-68
2023/02/21 15:08:26;;;;;;;4.10;1.90;;;10.70;92.40;;;;;;5024204;28;20022;-67
2023/02/21 15:10:57;;;;;;;5.00;1.75;;;10.70;92.40;;;;;;5025143;28;20013;-68
2023/02/21 15:13:33;;;;;;;8.60;2.85;;;10.80;92.40;;;;;;5019545;28;20079;-68
2023/02/21 15:16:01;;;;;;;8.05;2.30;;;10.80;92.30;;;;;;5026417;28;20044;-68
2023/02/21 15:18:28;;;;;;;8.70;2.40;;;10.80;92.30;;;;;;5025675;28;20149;-67
2023/02/21 15:21:01;;;;;;;7.95;2.83;;;10.80;92.30;;;;;;5027132;28;20041;-68
2023/02/21 15:23:28;;;;;;;4.35;2.00;;;10.90;92.30;;;;;;5022530;28;20064;-67
2023/02/21 15:25:56;;;;;;;5.03;2.10;;;10.90;92.20;;;;;;5026162;28;20061;-68
2023/02/21 15:28:30;;;;;;;6.38;2.10;;;10.90;92.20;;;;;;5023860;28;20067;-68
2023/02/21 15:30:58;;;;;;;5.45;1.98;;;11.00;92.20;;;;;;5024744;28;20025;-68